Боровичи

Карта отелей и гостиниц, располагающихся рядом с аэропортом Боровичи :

Боровичи Новгородская область 58° 26' 9.4812" N, 33° 53' 20.4612" E
Боровичи Новгородская область 58° 26' 9.4812" N, 33° 53' 20.4612" E
Код аэродрома ИКАО
ULNB
Код аэродрома RU
УЛНБ
Координаты
N58.43597° E033.88902°
Превышение над уровнем моря
107
Основная полоса
11/29
Курс магнитный
105,7/285,7
Длина основной ВПП
1300
Ширина основной ВПП
35
Покрытие основной ВПП
Твёрдое (асфальт)
Освещение ВПП
Нет
Тип: 
Аэродром
Класс аэродрома: 
Принадлежность: 
АОН
Статус: 
Действующий
Сайт: 
https://vk.com/club56863736
E-mail аэродрома: 
Bor.Avia@yandex.ru
Страна: 
Россия
Регион: 
Новгородская область
Город: 
Дополнительная информация: 
Бывший аэродром ГА в системе "МВЛ-2". ИВПП в хорошем состоянии, пригодна для посадки. Оператор (на правах аренды): Боровический аэроклуб "От винта!".

Найти трансфер

С помощью этой формы Вы можете найти трансфер из аэропорта Боровичи в город, аэропорт или вокзал:

Карта места

Javascript is required to view this map.

Погода в аэропортах:

Авиационная погода в Уральске

Регион: 
Погода METAR: 
UARR 171830Z 22002MPS 9999 -RA BKN040 08/04 Q1017 R22/CLRD70 NOSIG RMK QFE759/1012
Время наблюдения
2021-09-17T18:30:00Z
Температура C
8.0
Точка росы
4.0
Направление ветра
220
Скорость ветра (узлы)
4
Метео видимость
6.21
Явления погоды
-RA
Условия полета
VFR
Аэропорт подробнее: 

Авиационная погода в Екатеринбурге

Регион: 
Погода METAR: 
USSS 171830Z 10002MPS 9000 -SHRA SCT008 OVC022CB 05/05 Q1007 R26L/290050 R26R/290032 TEMPO 3100 -SHRA BKN005 SCT016CB RMK QFE734/0979
Время наблюдения
2021-09-17T18:30:00Z
Температура C
5.0
Точка росы
5.0
Направление ветра
100
Скорость ветра (узлы)
4
Метео видимость
5.59
Явления погоды
-SHRA
Условия полета
MVFR
Аэропорт подробнее: 

Авиационная погода в аэропорту Международный

Регион: 
Погода METAR: 
UKLL 171630Z 01004MPS 3600 -SHRA BKN004 BKN030CB 17/16 Q1005 R31/290055 NOSIG
Время наблюдения
2021-09-17T16:30:00Z
Температура C
17.0
Точка росы
16.0
Направление ветра
10
Скорость ветра (узлы)
8
Метео видимость
2.24
Явления погоды
-SHRA
Условия полета
LIFR
Аэропорт подробнее: 

Авиационная погода в Емельяново

Регион: 
Погода METAR: 
UNKL 171830Z 10002MPS 0150 0100S R29/0550U FG SCT001 08/08 Q1005 R29/CLRD65 NOSIG RMK QBB050 QFE729
Время наблюдения
2021-09-17T18:30:00Z
Температура C
8.0
Точка росы
8.0
Направление ветра
100
Скорость ветра (узлы)
4
Метео видимость
0.09
Явления погоды
FG
Условия полета
LIFR
Аэропорт подробнее: